Ясюниха

Карта отелей и гостиниц, располагающихся рядом с аэропортом Ясюниха :

Ясюниха
Иваново
Ивановская область 56° 57' 49.9104" N, 41° 4' 21.5004" E
Код аэродрома ИКАО
XUDN
Код аэродрома RU
ЬУДН
Координаты
N56.96386° E041.07264°
Превышение над уровнем моря
123
Основная полоса
15/33
Курс магнитный
144,8/324,8
Длина основной ВПП
723
Ширина основной ВПП
45
Покрытие основной ВПП
Нетвёрдое (грунт)
Освещение ВПП
Нет
Тип: 
Аэродром
Класс аэродрома: 
Принадлежность: 
ДОСААФ
Статус: 
Действующий
Сайт: 
http://www.ivask.ru
E-mail аэродрома: 
ask-iva@mail.ru
Страна: 
Россия
Регион: 
Ивановская область
Город: 
Иваново
Дополнительная информация: 
Стоимость взл/пос.- 500 р. В течение дня - стоянка бесплатно. Охраняемая стоянка - 200 р./сутки. Оператор: Ивановский областной АСК ДОСААФ России. Администрация АД радушна и гостеприимна. Принимает активное участие в жизни АОН. Нкр.=(300-400)м. С МК=325° система посадки ОСП: ДПРС: 450-БЖ, БПРС: 705-Б.


Найти трансфер

С помощью этой формы Вы можете найти трансфер из аэропорта Ясюниха в город, аэропорт или вокзал:

Погода в аэропортах:

Авиационная погода в аэропорту Имени Алексея Леонова

Регион: 
Погода METAR: 
UNEE 290730Z 28005MPS 9999 -RA SCT040 20/10 Q1011 R23/CLRD60 NOSIG RMK QFE735
Время наблюдения
2022-05-29T07:30:00Z
Температура C
20.0
Точка росы
10.0
Направление ветра
280
Скорость ветра (узлы)
10
Метео видимость
6.21
Облачность
SCT
Нижняя граница облачности (футы)
4000
Явления погоды
-RA
Условия полета
VFR
Аэропорт подробнее: 
SCT – разбросанная отдельная облачность;
-RA - слабый дождь;

Авиационная погода в Белгороде

Регион: 
Погода METAR: 
UUOB 290730Z 20003MPS 9000 -SHRA BKN040CB 12/09 Q1016 R29/190065 NOSIG
Время наблюдения
2022-05-29T07:30:00Z
Температура C
12.0
Точка росы
9.0
Направление ветра
200
Скорость ветра (узлы)
6
Метео видимость
5.59
Облачность
BKN
Нижняя граница облачности (футы)
4000
Явления погоды
-SHRA
Условия полета
VFR
Аэропорт подробнее: 
BKN – значительная (рассеянная, разорванная) облачность;
-SHRA - слабый ливневой дождь;

Авиационная погода в Игнатьево

Регион: 
Погода METAR: 
UHBB 290730Z 09003MPS 9999 -SHRA BKN026CB 14/12 Q0998 R36/090060 NOSIG RMK QFE731/0975
Время наблюдения
2022-05-29T07:30:00Z
Температура C
14.0
Точка росы
12.0
Направление ветра
90
Скорость ветра (узлы)
6
Метео видимость
6.21
Облачность
BKN
Нижняя граница облачности (футы)
2600
Явления погоды
-SHRA
Условия полета
MVFR
Аэропорт подробнее: 
BKN – значительная (рассеянная, разорванная) облачность;
-SHRA - слабый ливневой дождь;

Авиационная погода в Бухте Провидения

Погода METAR: 
UHMD 270400Z 18005MPS 6000 BCFG SCT006 02/00 Q1016 RMK QBB200 MT OBSC QFE761/1015
Время наблюдения
2022-05-27T04:00:00Z
Температура C
2.0
Точка росы
0.0
Направление ветра
180
Скорость ветра (узлы)
10
Метео видимость
3.73
Облачность
SCT
Нижняя граница облачности (футы)
600
Явления погоды
BCFG
Условия полета
MVFR
Аэропорт подробнее: 
SCT – разбросанная отдельная облачность;
FG – туман (небо не видно, температура воздуха выше нуля или ноль);